UGKO/KIU METAR and TAF weather

Enter ICAO airport designator
Station Type Date Time Source
UGKO METAR 2022/06/28 09:00 UTC NOAA

UGKO 280900Z 25006KT 220V290 9999 SCT024 BKN029 23/18 Q1008 NOSIG


Station Type Date Time Source
UGKO Decoded METAR 2022/06/28 09:00 UTC NOAA

Station name not available
Jun 28, 2022 - 05:00 AM EDT / 2022.06.28 0900 UTC
Wind: from the WSW (250 degrees) at 7 MPH (6 KT) (direction variable):0
Visibility: greater than 7 mile(s):0
Sky conditions: mostly cloudy
Temperature: 73 F (23 C)
Dew Point: 64 F (18 C)
Relative Humidity: 73%
Pressure (altimeter): 29.77 in. Hg (1008 hPa)
ob: UGKO 280900Z 25006KT 220V290 9999 SCT024 BKN029 23/18 Q1008 NOSIG
cycle: 9

Station Type Date Time Source
UGKO TAF 2022/06/28 06:06 UTC NOAA

TAF UGKO 280500Z 2806/2906 25006KT 9999 SCT022 OVC050 TX25/2811Z TN18/2902Z PROB40
TEMPO 2810/2818 27016KT TSRA BKN020CB

Example: see airport list